sensor_id;sensor_type;location;lat;lon;timestamp;P1;durP1;ratioP1;P2;durP2;ratioP2
31734;SDS011;18313;48.518;9.124;2023-02-03T00:02:06;2.28;;;1.20;;
31734;SDS011;18313;48.518;9.124;2023-02-03T00:04:33;3.65;;;1.20;;
31734;SDS011;18313;48.518;9.124;2023-02-03T00:07:00;3.13;;;1.27;;
31734;SDS011;18313;48.518;9.124;2023-02-03T00:09:28;4.85;;;1.70;;
31734;SDS011;18313;48.518;9.124;2023-02-03T00:11:55;4.07;;;1.25;;
31734;SDS011;18313;48.518;9.124;2023-02-03T00:14:22;2.90;;;1.30;;
31734;SDS011;18313;48.518;9.124;2023-02-03T00:16:50;2.92;;;1.05;;
31734;SDS011;18313;48.518;9.124;2023-02-03T00:19:17;3.08;;;1.38;;
31734;SDS011;18313;48.518;9.124;2023-02-03T00:21:45;3.10;;;1.48;;
31734;SDS011;18313;48.518;9.124;2023-02-03T00:24:12;3.30;;;1.23;;
31734;SDS011;18313;48.518;9.124;2023-02-03T00:26:42;3.95;;;1.30;;
31734;SDS011;18313;48.518;9.124;2023-02-03T00:29:10;3.70;;;1.65;;
31734;SDS011;18313;48.518;9.124;2023-02-03T00:31:37;3.63;;;1.40;;
31734;SDS011;18313;48.518;9.124;2023-02-03T00:34:05;2.72;;;1.15;;
31734;SDS011;18313;48.518;9.124;2023-02-03T00:36:32;4.75;;;1.30;;
31734;SDS011;18313;48.518;9.124;2023-02-03T00:38:59;3.80;;;1.52;;
31734;SDS011;18313;48.518;9.124;2023-02-03T00:41:28;4.47;;;1.63;;
31734;SDS011;18313;48.518;9.124;2023-02-03T00:43:59;4.78;;;1.70;;
31734;SDS011;18313;48.518;9.124;2023-02-03T00:46:27;2.55;;;1.17;;
31734;SDS011;18313;48.518;9.124;2023-02-03T00:48:55;3.75;;;1.23;;
31734;SDS011;18313;48.518;9.124;2023-02-03T00:51:22;2.38;;;1.08;;
31734;SDS011;18313;48.518;9.124;2023-02-03T00:53:49;3.40;;;1.23;;
31734;SDS011;18313;48.518;9.124;2023-02-03T00:56:16;3.00;;;1.30;;
31734;SDS011;18313;48.518;9.124;2023-02-03T00:58:43;2.47;;;1.30;;
31734;SDS011;18313;48.518;9.124;2023-02-03T01:01:10;1.95;;;1.10;;
31734;SDS011;18313;48.518;9.124;2023-02-03T01:03:38;3.78;;;1.30;;
31734;SDS011;18313;48.518;9.124;2023-02-03T01:08:41;3.28;;;1.17;;
31734;SDS011;18313;48.518;9.124;2023-02-03T01:11:09;2.53;;;1.20;;
31734;SDS011;18313;48.518;9.124;2023-02-03T01:13:39;3.97;;;1.38;;
31734;SDS011;18313;48.518;9.124;2023-02-03T01:16:07;3.58;;;1.30;;
31734;SDS011;18313;48.518;9.124;2023-02-03T01:18:38;4.15;;;1.50;;
31734;SDS011;18313;48.518;9.124;2023-02-03T01:21:09;5.65;;;1.33;;
31734;SDS011;18313;48.518;9.124;2023-02-03T01:23:39;3.78;;;1.08;;
31734;SDS011;18313;48.518;9.124;2023-02-03T01:26:07;2.13;;;1.15;;
31734;SDS011;18313;48.518;9.124;2023-02-03T01:28:36;5.18;;;1.13;;
31734;SDS011;18313;48.518;9.124;2023-02-03T01:31:13;2.78;;;1.00;;
31734;SDS011;18313;48.518;9.124;2023-02-03T01:33:42;2.30;;;1.17;;
31734;SDS011;18313;48.518;9.124;2023-02-03T01:36:15;2.92;;;1.38;;
31734;SDS011;18313;48.518;9.124;2023-02-03T01:38:43;1.52;;;1.00;;
31734;SDS011;18313;48.518;9.124;2023-02-03T01:41:18;4.97;;;1.40;;
31734;SDS011;18313;48.518;9.124;2023-02-03T01:43:55;3.25;;;1.20;;
31734;SDS011;18313;48.518;9.124;2023-02-03T01:49:12;3.10;;;1.23;;
31734;SDS011;18313;48.518;9.124;2023-02-03T01:51:45;2.88;;;1.23;;
31734;SDS011;18313;48.518;9.124;2023-02-03T01:54:13;4.38;;;1.38;;
31734;SDS011;18313;48.518;9.124;2023-02-03T01:56:47;5.30;;;1.20;;
31734;SDS011;18313;48.518;9.124;2023-02-03T01:59:17;5.40;;;1.48;;
31734;SDS011;18313;48.518;9.124;2023-02-03T02:01:46;2.38;;;1.05;;
31734;SDS011;18313;48.518;9.124;2023-02-03T02:04:14;2.08;;;1.15;;
31734;SDS011;18313;48.518;9.124;2023-02-03T02:06:41;1.98;;;1.23;;
31734;SDS011;18313;48.518;9.124;2023-02-03T02:09:08;2.50;;;1.20;;
31734;SDS011;18313;48.518;9.124;2023-02-03T02:11:35;2.78;;;1.20;;
31734;SDS011;18313;48.518;9.124;2023-02-03T02:14:03;4.53;;;1.45;;
31734;SDS011;18313;48.518;9.124;2023-02-03T02:16:37;4.47;;;1.20;;
31734;SDS011;18313;48.518;9.124;2023-02-03T02:19:25;4.22;;;1.10;;
31734;SDS011;18313;48.518;9.124;2023-02-03T02:22:19;3.70;;;1.30;;
31734;SDS011;18313;48.518;9.124;2023-02-03T02:33:55;1.80;;;0.90;;
31734;SDS011;18313;48.518;9.124;2023-02-03T02:36:30;4.90;;;1.35;;
31734;SDS011;18313;48.518;9.124;2023-02-03T02:39:08;2.63;;;1.20;;
31734;SDS011;18313;48.518;9.124;2023-02-03T02:44:09;3.70;;;1.10;;
31734;SDS011;18313;48.518;9.124;2023-02-03T02:46:39;3.75;;;1.30;;
31734;SDS011;18313;48.518;9.124;2023-02-03T02:49:16;2.67;;;1.27;;
31734;SDS011;18313;48.518;9.124;2023-02-03T02:51:47;3.33;;;1.10;;
31734;SDS011;18313;48.518;9.124;2023-02-03T02:54:17;1.70;;;1.00;;
31734;SDS011;18313;48.518;9.124;2023-02-03T02:56:48;2.72;;;0.90;;
31734;SDS011;18313;48.518;9.124;2023-02-03T02:59:20;3.47;;;1.00;;
31734;SDS011;18313;48.518;9.124;2023-02-03T03:01:48;3.58;;;1.10;;
31734;SDS011;18313;48.518;9.124;2023-02-03T03:04:15;1.50;;;0.82;;
31734;SDS011;18313;48.518;9.124;2023-02-03T03:06:47;2.70;;;0.93;;
31734;SDS011;18313;48.518;9.124;2023-02-03T03:09:23;1.85;;;0.88;;
31734;SDS011;18313;48.518;9.124;2023-02-03T03:11:56;1.17;;;0.70;;
31734;SDS011;18313;48.518;9.124;2023-02-03T03:14:27;1.15;;;0.80;;
31734;SDS011;18313;48.518;9.124;2023-02-03T03:16:58;5.82;;;0.90;;
31734;SDS011;18313;48.518;9.124;2023-02-03T03:19:31;3.35;;;0.90;;
31734;SDS011;18313;48.518;9.124;2023-02-03T03:22:03;2.30;;;0.88;;
31734;SDS011;18313;48.518;9.124;2023-02-03T03:24:33;2.22;;;0.95;;
31734;SDS011;18313;48.518;9.124;2023-02-03T03:27:14;1.50;;;0.80;;
31734;SDS011;18313;48.518;9.124;2023-02-03T03:29:57;1.45;;;0.75;;
31734;SDS011;18313;48.518;9.124;2023-02-03T03:32:31;2.05;;;0.98;;
31734;SDS011;18313;48.518;9.124;2023-02-03T03:34:59;1.85;;;0.75;;
31734;SDS011;18313;48.518;9.124;2023-02-03T03:37:33;1.83;;;0.90;;
31734;SDS011;18313;48.518;9.124;2023-02-03T03:40:08;2.83;;;0.93;;
31734;SDS011;18313;48.518;9.124;2023-02-03T03:45:43;2.53;;;0.80;;
31734;SDS011;18313;48.518;9.124;2023-02-03T03:48:20;1.55;;;0.80;;
31734;SDS011;18313;48.518;9.124;2023-02-03T03:53:26;3.25;;;0.90;;
31734;SDS011;18313;48.518;9.124;2023-02-03T03:55:55;2.17;;;0.75;;
31734;SDS011;18313;48.518;9.124;2023-02-03T03:58:30;4.28;;;0.93;;
31734;SDS011;18313;48.518;9.124;2023-02-03T04:01:01;1.58;;;1.02;;
31734;SDS011;18313;48.518;9.124;2023-02-03T04:03:34;2.38;;;0.95;;
31734;SDS011;18313;48.518;9.124;2023-02-03T04:06:11;2.67;;;0.93;;
31734;SDS011;18313;48.518;9.124;2023-02-03T04:08:38;1.67;;;0.85;;
31734;SDS011;18313;48.518;9.124;2023-02-03T04:11:05;0.95;;;0.65;;
31734;SDS011;18313;48.518;9.124;2023-02-03T04:13:33;1.75;;;0.80;;
31734;SDS011;18313;48.518;9.124;2023-02-03T04:16:00;2.92;;;0.80;;
31734;SDS011;18313;48.518;9.124;2023-02-03T04:18:27;2.10;;;0.80;;
31734;SDS011;18313;48.518;9.124;2023-02-03T04:20:54;3.17;;;0.73;;
31734;SDS011;18313;48.518;9.124;2023-02-03T04:23:21;1.50;;;0.70;;
31734;SDS011;18313;48.518;9.124;2023-02-03T04:25:48;1.25;;;0.80;;
31734;SDS011;18313;48.518;9.124;2023-02-03T04:28:15;2.88;;;1.00;;
31734;SDS011;18313;48.518;9.124;2023-02-03T04:30:42;2.17;;;0.90;;
31734;SDS011;18313;48.518;9.124;2023-02-03T04:33:09;1.88;;;0.90;;
31734;SDS011;18313;48.518;9.124;2023-02-03T04:35:37;3.70;;;0.80;;
31734;SDS011;18313;48.518;9.124;2023-02-03T04:38:04;2.13;;;0.80;;
31734;SDS011;18313;48.518;9.124;2023-02-03T04:40:31;1.92;;;0.80;;
31734;SDS011;18313;48.518;9.124;2023-02-03T04:43:04;2.22;;;0.80;;
31734;SDS011;18313;48.518;9.124;2023-02-03T04:45:32;1.73;;;0.95;;
31734;SDS011;18313;48.518;9.124;2023-02-03T04:48:00;2.38;;;0.80;;
31734;SDS011;18313;48.518;9.124;2023-02-03T04:50:27;1.95;;;0.60;;
31734;SDS011;18313;48.518;9.124;2023-02-03T04:52:55;1.67;;;0.70;;
31734;SDS011;18313;48.518;9.124;2023-02-03T04:55:24;2.28;;;1.20;;
31734;SDS011;18313;48.518;9.124;2023-02-03T04:57:55;1.95;;;0.95;;
31734;SDS011;18313;48.518;9.124;2023-02-03T05:00:24;1.83;;;0.80;;
31734;SDS011;18313;48.518;9.124;2023-02-03T05:02:52;1.38;;;0.70;;
31734;SDS011;18313;48.518;9.124;2023-02-03T05:05:20;2.03;;;1.00;;
31734;SDS011;18313;48.518;9.124;2023-02-03T05:07:47;3.42;;;0.98;;
31734;SDS011;18313;48.518;9.124;2023-02-03T05:10:14;3.75;;;0.85;;
31734;SDS011;18313;48.518;9.124;2023-02-03T05:12:44;2.25;;;1.00;;
31734;SDS011;18313;48.518;9.124;2023-02-03T05:15:11;3.40;;;0.80;;
31734;SDS011;18313;48.518;9.124;2023-02-03T05:17:38;2.42;;;0.88;;
31734;SDS011;18313;48.518;9.124;2023-02-03T05:20:06;2.70;;;0.82;;
31734;SDS011;18313;48.518;9.124;2023-02-03T05:22:34;1.92;;;0.90;;
31734;SDS011;18313;48.518;9.124;2023-02-03T05:25:01;3.60;;;1.08;;
31734;SDS011;18313;48.518;9.124;2023-02-03T05:27:29;3.75;;;0.90;;
31734;SDS011;18313;48.518;9.124;2023-02-03T05:29:56;2.08;;;0.80;;
31734;SDS011;18313;48.518;9.124;2023-02-03T05:32:23;2.60;;;1.00;;
31734;SDS011;18313;48.518;9.124;2023-02-03T05:34:51;1.05;;;0.77;;
31734;SDS011;18313;48.518;9.124;2023-02-03T05:37:18;1.92;;;0.80;;
31734;SDS011;18313;48.518;9.124;2023-02-03T05:39:45;2.10;;;0.93;;
31734;SDS011;18313;48.518;9.124;2023-02-03T05:42:12;3.15;;;1.00;;
31734;SDS011;18313;48.518;9.124;2023-02-03T05:44:39;1.90;;;0.73;;
31734;SDS011;18313;48.518;9.124;2023-02-03T05:47:06;5.65;;;1.17;;
31734;SDS011;18313;48.518;9.124;2023-02-03T05:49:34;1.30;;;0.80;;
31734;SDS011;18313;48.518;9.124;2023-02-03T05:52:01;4.80;;;1.10;;
31734;SDS011;18313;48.518;9.124;2023-02-03T05:54:28;2.50;;;0.73;;
31734;SDS011;18313;48.518;9.124;2023-02-03T05:56:55;1.50;;;0.90;;
31734;SDS011;18313;48.518;9.124;2023-02-03T05:59:22;2.90;;;1.13;;
31734;SDS011;18313;48.518;9.124;2023-02-03T06:01:49;2.78;;;0.90;;
31734;SDS011;18313;48.518;9.124;2023-02-03T06:04:16;1.85;;;0.80;;
31734;SDS011;18313;48.518;9.124;2023-02-03T06:06:43;1.90;;;1.08;;
31734;SDS011;18313;48.518;9.124;2023-02-03T06:09:13;3.05;;;0.90;;
31734;SDS011;18313;48.518;9.124;2023-02-03T06:11:40;3.38;;;0.85;;
31734;SDS011;18313;48.518;9.124;2023-02-03T06:14:08;1.92;;;0.90;;
31734;SDS011;18313;48.518;9.124;2023-02-03T06:16:35;3.17;;;1.00;;
31734;SDS011;18313;48.518;9.124;2023-02-03T06:19:02;1.73;;;0.82;;
31734;SDS011;18313;48.518;9.124;2023-02-03T06:21:29;2.58;;;1.52;;
31734;SDS011;18313;48.518;9.124;2023-02-03T06:23:56;2.47;;;0.98;;
31734;SDS011;18313;48.518;9.124;2023-02-03T06:26:23;2.15;;;0.88;;
31734;SDS011;18313;48.518;9.124;2023-02-03T06:28:51;3.60;;;0.90;;
31734;SDS011;18313;48.518;9.124;2023-02-03T06:31:18;2.58;;;1.00;;
31734;SDS011;18313;48.518;9.124;2023-02-03T06:33:45;2.10;;;0.85;;
31734;SDS011;18313;48.518;9.124;2023-02-03T06:36:12;1.92;;;1.10;;
31734;SDS011;18313;48.518;9.124;2023-02-03T06:38:39;2.63;;;1.00;;
31734;SDS011;18313;48.518;9.124;2023-02-03T06:41:06;3.25;;;1.08;;
31734;SDS011;18313;48.518;9.124;2023-02-03T06:43:33;2.38;;;0.90;;
31734;SDS011;18313;48.518;9.124;2023-02-03T06:46:00;3.33;;;1.00;;
31734;SDS011;18313;48.518;9.124;2023-02-03T06:48:28;4.07;;;1.00;;
31734;SDS011;18313;48.518;9.124;2023-02-03T06:50:55;2.03;;;1.30;;
31734;SDS011;18313;48.518;9.124;2023-02-03T06:53:22;2.03;;;0.80;;
31734;SDS011;18313;48.518;9.124;2023-02-03T06:55:49;5.30;;;1.13;;
31734;SDS011;18313;48.518;9.124;2023-02-03T06:58:16;2.30;;;1.00;;
31734;SDS011;18313;48.518;9.124;2023-02-03T07:00:43;3.45;;;0.93;;
31734;SDS011;18313;48.518;9.124;2023-02-03T07:03:10;1.83;;;1.10;;
31734;SDS011;18313;48.518;9.124;2023-02-03T07:05:38;6.75;;;1.30;;
31734;SDS011;18313;48.518;9.124;2023-02-03T07:08:06;3.28;;;1.00;;
31734;SDS011;18313;48.518;9.124;2023-02-03T07:10:33;2.92;;;1.17;;
31734;SDS011;18313;48.518;9.124;2023-02-03T07:13:01;3.72;;;1.15;;
31734;SDS011;18313;48.518;9.124;2023-02-03T07:15:32;3.83;;;1.10;;
31734;SDS011;18313;48.518;9.124;2023-02-03T07:18:00;2.15;;;1.10;;
31734;SDS011;18313;48.518;9.124;2023-02-03T07:20:27;2.80;;;1.38;;
31734;SDS011;18313;48.518;9.124;2023-02-03T07:22:55;3.25;;;1.30;;
31734;SDS011;18313;48.518;9.124;2023-02-03T07:25:23;3.28;;;1.13;;
31734;SDS011;18313;48.518;9.124;2023-02-03T07:27:51;2.53;;;1.20;;
31734;SDS011;18313;48.518;9.124;2023-02-03T07:30:18;3.63;;;1.25;;
31734;SDS011;18313;48.518;9.124;2023-02-03T07:32:49;5.15;;;1.52;;
31734;SDS011;18313;48.518;9.124;2023-02-03T07:35:17;3.58;;;1.30;;
31734;SDS011;18313;48.518;9.124;2023-02-03T07:37:44;2.97;;;1.33;;
31734;SDS011;18313;48.518;9.124;2023-02-03T07:40:12;2.92;;;1.35;;
31734;SDS011;18313;48.518;9.124;2023-02-03T07:42:44;2.33;;;1.25;;
31734;SDS011;18313;48.518;9.124;2023-02-03T07:45:14;3.65;;;1.40;;
31734;SDS011;18313;48.518;9.124;2023-02-03T07:47:42;4.60;;;1.70;;
31734;SDS011;18313;48.518;9.124;2023-02-03T07:50:10;3.83;;;1.70;;
31734;SDS011;18313;48.518;9.124;2023-02-03T07:52:37;3.95;;;1.73;;
31734;SDS011;18313;48.518;9.124;2023-02-03T07:55:05;3.80;;;2.03;;
31734;SDS011;18313;48.518;9.124;2023-02-03T07:57:32;3.28;;;1.55;;
31734;SDS011;18313;48.518;9.124;2023-02-03T07:59:59;2.40;;;1.30;;
31734;SDS011;18313;48.518;9.124;2023-02-03T08:02:26;2.33;;;1.20;;
31734;SDS011;18313;48.518;9.124;2023-02-03T08:04:54;2.10;;;1.15;;
31734;SDS011;18313;48.518;9.124;2023-02-03T08:07:23;2.28;;;1.02;;
31734;SDS011;18313;48.518;9.124;2023-02-03T08:09:50;2.70;;;0.93;;
31734;SDS011;18313;48.518;9.124;2023-02-03T08:12:17;2.15;;;0.85;;
31734;SDS011;18313;48.518;9.124;2023-02-03T08:14:44;2.88;;;1.10;;
31734;SDS011;18313;48.518;9.124;2023-02-03T08:17:11;6.18;;;1.00;;
31734;SDS011;18313;48.518;9.124;2023-02-03T08:19:38;1.73;;;1.00;;
31734;SDS011;18313;48.518;9.124;2023-02-03T08:22:05;2.67;;;1.00;;
31734;SDS011;18313;48.518;9.124;2023-02-03T08:24:32;2.65;;;1.23;;
31734;SDS011;18313;48.518;9.124;2023-02-03T08:26:59;2.67;;;1.00;;
31734;SDS011;18313;48.518;9.124;2023-02-03T08:29:27;3.47;;;1.25;;
31734;SDS011;18313;48.518;9.124;2023-02-03T08:31:54;2.08;;;1.30;;
31734;SDS011;18313;48.518;9.124;2023-02-03T08:34:21;4.90;;;1.17;;
31734;SDS011;18313;48.518;9.124;2023-02-03T08:36:48;2.85;;;0.98;;
31734;SDS011;18313;48.518;9.124;2023-02-03T08:39:15;2.05;;;0.98;;
31734;SDS011;18313;48.518;9.124;2023-02-03T08:41:42;2.42;;;1.20;;
31734;SDS011;18313;48.518;9.124;2023-02-03T08:44:10;1.83;;;0.90;;
31734;SDS011;18313;48.518;9.124;2023-02-03T08:46:37;4.95;;;1.23;;
31734;SDS011;18313;48.518;9.124;2023-02-03T08:49:09;2.88;;;1.10;;
31734;SDS011;18313;48.518;9.124;2023-02-03T08:51:37;2.03;;;1.10;;
31734;SDS011;18313;48.518;9.124;2023-02-03T08:54:04;3.20;;;1.17;;
31734;SDS011;18313;48.518;9.124;2023-02-03T08:56:31;2.10;;;0.90;;
31734;SDS011;18313;48.518;9.124;2023-02-03T08:58:59;2.35;;;1.20;;
31734;SDS011;18313;48.518;9.124;2023-02-03T09:01:27;5.32;;;0.93;;
31734;SDS011;18313;48.518;9.124;2023-02-03T09:03:54;2.97;;;0.98;;
31734;SDS011;18313;48.518;9.124;2023-02-03T09:06:22;5.40;;;1.10;;
31734;SDS011;18313;48.518;9.124;2023-02-03T09:08:51;3.60;;;1.17;;
31734;SDS011;18313;48.518;9.124;2023-02-03T09:11:19;1.95;;;1.00;;
31734;SDS011;18313;48.518;9.124;2023-02-03T09:13:46;3.83;;;1.25;;
31734;SDS011;18313;48.518;9.124;2023-02-03T09:16:15;2.38;;;1.02;;
31734;SDS011;18313;48.518;9.124;2023-02-03T09:18:44;1.40;;;1.10;;
31734;SDS011;18313;48.518;9.124;2023-02-03T09:21:12;3.63;;;1.10;;
31734;SDS011;18313;48.518;9.124;2023-02-03T09:24:00;2.63;;;1.05;;
31734;SDS011;18313;48.518;9.124;2023-02-03T09:26:30;1.63;;;1.00;;
31734;SDS011;18313;48.518;9.124;2023-02-03T09:28:58;5.20;;;1.17;;
31734;SDS011;18313;48.518;9.124;2023-02-03T09:31:26;3.03;;;1.00;;
31734;SDS011;18313;48.518;9.124;2023-02-03T09:33:54;2.88;;;1.10;;
31734;SDS011;18313;48.518;9.124;2023-02-03T09:36:21;2.72;;;1.45;;
31734;SDS011;18313;48.518;9.124;2023-02-03T09:38:48;1.90;;;1.08;;
31734;SDS011;18313;48.518;9.124;2023-02-03T09:44:01;3.95;;;1.10;;
31734;SDS011;18313;48.518;9.124;2023-02-03T09:46:37;1.98;;;1.30;;
31734;SDS011;18313;48.518;9.124;2023-02-03T09:49:15;3.53;;;0.80;;
31734;SDS011;18313;48.518;9.124;2023-02-03T09:51:59;2.22;;;0.98;;
31734;SDS011;18313;48.518;9.124;2023-02-03T09:57:27;2.20;;;0.95;;
31734;SDS011;18313;48.518;9.124;2023-02-03T09:59:57;2.33;;;1.00;;
31734;SDS011;18313;48.518;9.124;2023-02-03T10:11:15;1.25;;;0.73;;
31734;SDS011;18313;48.518;9.124;2023-02-03T10:19:34;1.67;;;0.60;;
31734;SDS011;18313;48.518;9.124;2023-02-03T10:22:18;2.88;;;1.00;;
31734;SDS011;18313;48.518;9.124;2023-02-03T10:25:10;3.10;;;0.90;;
31734;SDS011;18313;48.518;9.124;2023-02-03T10:27:54;3.00;;;0.80;;
31734;SDS011;18313;48.518;9.124;2023-02-03T10:30:26;1.38;;;0.70;;
31734;SDS011;18313;48.518;9.124;2023-02-03T10:33:29;1.65;;;0.70;;
31734;SDS011;18313;48.518;9.124;2023-02-03T10:36:02;1.92;;;0.82;;
31734;SDS011;18313;48.518;9.124;2023-02-03T10:38:54;3.65;;;0.93;;
31734;SDS011;18313;48.518;9.124;2023-02-03T10:41:22;1.65;;;0.70;;
31734;SDS011;18313;48.518;9.124;2023-02-03T10:43:50;1.65;;;0.65;;
31734;SDS011;18313;48.518;9.124;2023-02-03T10:46:26;2.40;;;0.90;;
31734;SDS011;18313;48.518;9.124;2023-02-03T10:48:55;1.83;;;0.70;;
31734;SDS011;18313;48.518;9.124;2023-02-03T10:51:26;2.25;;;0.80;;
31734;SDS011;18313;48.518;9.124;2023-02-03T10:54:24;1.55;;;0.75;;
31734;SDS011;18313;48.518;9.124;2023-02-03T10:57:05;2.47;;;0.70;;
31734;SDS011;18313;48.518;9.124;2023-02-03T10:59:40;1.65;;;0.90;;
31734;SDS011;18313;48.518;9.124;2023-02-03T11:02:18;2.30;;;1.00;;
31734;SDS011;18313;48.518;9.124;2023-02-03T11:05:35;0.90;;;0.60;;
31734;SDS011;18313;48.518;9.124;2023-02-03T11:07:43;2.55;;;0.80;;
31734;SDS011;18313;48.518;9.124;2023-02-03T11:10:30;1.52;;;0.70;;
31734;SDS011;18313;48.518;9.124;2023-02-03T11:13:12;2.08;;;0.80;;
31734;SDS011;18313;48.518;9.124;2023-02-03T11:15:50;2.80;;;0.68;;
31734;SDS011;18313;48.518;9.124;2023-02-03T11:21:14;1.75;;;0.68;;
31734;SDS011;18313;48.518;9.124;2023-02-03T11:23:46;4.97;;;0.70;;
31734;SDS011;18313;48.518;9.124;2023-02-03T11:26:26;1.23;;;0.57;;
31734;SDS011;18313;48.518;9.124;2023-02-03T11:28:59;2.10;;;0.68;;
31734;SDS011;18313;48.518;9.124;2023-02-03T11:31:29;1.20;;;0.50;;
31734;SDS011;18313;48.518;9.124;2023-02-03T11:33:59;2.08;;;0.70;;
31734;SDS011;18313;48.518;9.124;2023-02-03T11:36:30;1.83;;;0.90;;
31734;SDS011;18313;48.518;9.124;2023-02-03T11:39:16;1.40;;;0.90;;
31734;SDS011;18313;48.518;9.124;2023-02-03T11:41:46;0.70;;;0.50;;
31734;SDS011;18313;48.518;9.124;2023-02-03T11:44:24;0.50;;;0.50;;
31734;SDS011;18313;48.518;9.124;2023-02-03T11:47:02;1.27;;;0.60;;
31734;SDS011;18313;48.518;9.124;2023-02-03T11:52:44;2.05;;;0.60;;
31734;SDS011;18313;48.518;9.124;2023-02-03T12:00:51;1.73;;;0.68;;
31734;SDS011;18313;48.518;9.124;2023-02-03T12:06:23;1.45;;;0.80;;
31734;SDS011;18313;48.518;9.124;2023-02-03T12:09:14;3.45;;;1.10;;
31734;SDS011;18313;48.518;9.124;2023-02-03T12:14:56;1.83;;;0.70;;
31734;SDS011;18313;48.518;9.124;2023-02-03T12:17:46;1.73;;;0.70;;
31734;SDS011;18313;48.518;9.124;2023-02-03T12:26:01;1.75;;;0.70;;
31734;SDS011;18313;48.518;9.124;2023-02-03T12:31:17;1.20;;;0.70;;
31734;SDS011;18313;48.518;9.124;2023-02-03T12:34:14;1.65;;;0.80;;
31734;SDS011;18313;48.518;9.124;2023-02-03T12:37:03;1.48;;;0.70;;
31734;SDS011;18313;48.518;9.124;2023-02-03T12:40:11;2.08;;;0.82;;
31734;SDS011;18313;48.518;9.124;2023-02-03T12:42:34;2.40;;;0.70;;
31734;SDS011;18313;48.518;9.124;2023-02-03T12:47:48;3.30;;;1.45;;
31734;SDS011;18313;48.518;9.124;2023-02-03T12:50:24;1.30;;;0.80;;
31734;SDS011;18313;48.518;9.124;2023-02-03T12:53:00;1.00;;;0.70;;
31734;SDS011;18313;48.518;9.124;2023-02-03T12:58:16;2.42;;;0.88;;
31734;SDS011;18313;48.518;9.124;2023-02-03T13:03:30;0.65;;;0.55;;
31734;SDS011;18313;48.518;9.124;2023-02-03T13:06:05;1.38;;;0.75;;
31734;SDS011;18313;48.518;9.124;2023-02-03T13:13:57;5.00;;;0.70;;
31734;SDS011;18313;48.518;9.124;2023-02-03T13:16:32;1.30;;;0.77;;
31734;SDS011;18313;48.518;9.124;2023-02-03T13:19:05;0.90;;;0.70;;
31734;SDS011;18313;48.518;9.124;2023-02-03T13:21:39;4.13;;;0.85;;
31734;SDS011;18313;48.518;9.124;2023-02-03T13:24:08;1.48;;;0.60;;
31734;SDS011;18313;48.518;9.124;2023-02-03T13:26:41;1.42;;;0.68;;
31734;SDS011;18313;48.518;9.124;2023-02-03T13:29:49;0.88;;;0.63;;
31734;SDS011;18313;48.518;9.124;2023-02-03T13:43:34;2.00;;;0.90;;
31734;SDS011;18313;48.518;9.124;2023-02-03T13:46:06;1.42;;;0.70;;
31734;SDS011;18313;48.518;9.124;2023-02-03T13:48:44;3.22;;;0.80;;
31734;SDS011;18313;48.518;9.124;2023-02-03T13:51:13;2.65;;;0.75;;
31734;SDS011;18313;48.518;9.124;2023-02-03T13:53:44;1.25;;;0.70;;
31734;SDS011;18313;48.518;9.124;2023-02-03T13:56:19;1.25;;;0.77;;
31734;SDS011;18313;48.518;9.124;2023-02-03T13:59:49;2.40;;;0.75;;
31734;SDS011;18313;48.518;9.124;2023-02-03T14:05:08;2.72;;;0.77;;
31734;SDS011;18313;48.518;9.124;2023-02-03T14:08:41;1.95;;;0.95;;
31734;SDS011;18313;48.518;9.124;2023-02-03T14:14:39;1.77;;;0.70;;
31734;SDS011;18313;48.518;9.124;2023-02-03T14:16:49;1.52;;;0.73;;
31734;SDS011;18313;48.518;9.124;2023-02-03T14:21:51;2.20;;;0.77;;
31734;SDS011;18313;48.518;9.124;2023-02-03T14:24:38;1.55;;;0.80;;
31734;SDS011;18313;48.518;9.124;2023-02-03T14:27:41;1.73;;;0.88;;
31734;SDS011;18313;48.518;9.124;2023-02-03T14:32:47;1.73;;;0.80;;
31734;SDS011;18313;48.518;9.124;2023-02-03T14:35:29;1.40;;;0.80;;
31734;SDS011;18313;48.518;9.124;2023-02-03T14:38:05;2.55;;;0.80;;
31734;SDS011;18313;48.518;9.124;2023-02-03T14:40:43;4.13;;;1.10;;
31734;SDS011;18313;48.518;9.124;2023-02-03T14:54:45;1.65;;;0.60;;
31734;SDS011;18313;48.518;9.124;2023-02-03T15:00:43;1.55;;;1.00;;
31734;SDS011;18313;48.518;9.124;2023-02-03T15:08:52;2.47;;;0.80;;
31734;SDS011;18313;48.518;9.124;2023-02-03T15:16:56;3.03;;;1.10;;
31734;SDS011;18313;48.518;9.124;2023-02-03T15:19:26;2.55;;;1.17;;
31734;SDS011;18313;48.518;9.124;2023-02-03T15:22:24;2.22;;;1.02;;
31734;SDS011;18313;48.518;9.124;2023-02-03T15:25:00;2.70;;;0.98;;
31734;SDS011;18313;48.518;9.124;2023-02-03T15:27:33;2.05;;;0.80;;
31734;SDS011;18313;48.518;9.124;2023-02-03T15:30:13;1.73;;;0.90;;
31734;SDS011;18313;48.518;9.124;2023-02-03T15:32:47;1.83;;;0.90;;
31734;SDS011;18313;48.518;9.124;2023-02-03T15:35:29;1.70;;;0.70;;
31734;SDS011;18313;48.518;9.124;2023-02-03T15:38:01;1.13;;;0.70;;
31734;SDS011;18313;48.518;9.124;2023-02-03T15:40:35;1.17;;;0.80;;
31734;SDS011;18313;48.518;9.124;2023-02-03T15:43:08;2.08;;;1.00;;
31734;SDS011;18313;48.518;9.124;2023-02-03T15:45:57;1.75;;;0.82;;
31734;SDS011;18313;48.518;9.124;2023-02-03T15:48:56;3.22;;;0.90;;
31734;SDS011;18313;48.518;9.124;2023-02-03T15:51:27;1.95;;;0.90;;
31734;SDS011;18313;48.518;9.124;2023-02-03T15:54:02;2.85;;;0.90;;
31734;SDS011;18313;48.518;9.124;2023-02-03T15:56:39;1.23;;;0.90;;
31734;SDS011;18313;48.518;9.124;2023-02-03T15:59:21;1.17;;;0.80;;
31734;SDS011;18313;48.518;9.124;2023-02-03T16:01:57;2.30;;;0.80;;
31734;SDS011;18313;48.518;9.124;2023-02-03T16:04:26;0.85;;;0.80;;
31734;SDS011;18313;48.518;9.124;2023-02-03T16:06:55;2.72;;;1.35;;
31734;SDS011;18313;48.518;9.124;2023-02-03T16:09:31;5.68;;;1.77;;
31734;SDS011;18313;48.518;9.124;2023-02-03T16:14:50;2.15;;;0.90;;
31734;SDS011;18313;48.518;9.124;2023-02-03T16:19:51;2.60;;;0.95;;
31734;SDS011;18313;48.518;9.124;2023-02-03T16:22:39;2.00;;;0.90;;
31734;SDS011;18313;48.518;9.124;2023-02-03T16:25:16;1.67;;;0.98;;
31734;SDS011;18313;48.518;9.124;2023-02-03T16:27:57;2.33;;;1.20;;
31734;SDS011;18313;48.518;9.124;2023-02-03T16:31:02;3.88;;;1.60;;
31734;SDS011;18313;48.518;9.124;2023-02-03T16:33:59;6.25;;;2.25;;
31734;SDS011;18313;48.518;9.124;2023-02-03T16:36:59;1.35;;;0.85;;
31734;SDS011;18313;48.518;9.124;2023-02-03T16:39:45;3.28;;;1.00;;
31734;SDS011;18313;48.518;9.124;2023-02-03T16:42:35;4.15;;;1.80;;
31734;SDS011;18313;48.518;9.124;2023-02-03T16:45:23;2.45;;;1.25;;
31734;SDS011;18313;48.518;9.124;2023-02-03T16:48:09;1.63;;;1.00;;
31734;SDS011;18313;48.518;9.124;2023-02-03T16:50:56;1.73;;;0.90;;
31734;SDS011;18313;48.518;9.124;2023-02-03T16:53:29;2.90;;;1.38;;
31734;SDS011;18313;48.518;9.124;2023-02-03T16:55:59;2.63;;;1.20;;
31734;SDS011;18313;48.518;9.124;2023-02-03T16:58:27;2.85;;;1.48;;
31734;SDS011;18313;48.518;9.124;2023-02-03T17:00:56;2.53;;;1.25;;
31734;SDS011;18313;48.518;9.124;2023-02-03T17:03:26;2.38;;;1.10;;
31734;SDS011;18313;48.518;9.124;2023-02-03T17:05:54;1.45;;;0.82;;
31734;SDS011;18313;48.518;9.124;2023-02-03T17:08:23;2.60;;;0.90;;
31734;SDS011;18313;48.518;9.124;2023-02-03T17:10:51;3.55;;;1.27;;
31734;SDS011;18313;48.518;9.124;2023-02-03T17:13:18;2.03;;;1.00;;
31734;SDS011;18313;48.518;9.124;2023-02-03T17:15:47;2.50;;;0.95;;
31734;SDS011;18313;48.518;9.124;2023-02-03T17:18:17;2.22;;;1.15;;
31734;SDS011;18313;48.518;9.124;2023-02-03T17:20:44;2.83;;;1.30;;
31734;SDS011;18313;48.518;9.124;2023-02-03T17:23:12;2.72;;;1.10;;
31734;SDS011;18313;48.518;9.124;2023-02-03T17:25:45;4.72;;;1.10;;
31734;SDS011;18313;48.518;9.124;2023-02-03T17:28:13;1.88;;;1.00;;
31734;SDS011;18313;48.518;9.124;2023-02-03T17:30:41;2.00;;;0.85;;
31734;SDS011;18313;48.518;9.124;2023-02-03T17:33:08;1.73;;;0.95;;
31734;SDS011;18313;48.518;9.124;2023-02-03T17:35:39;1.95;;;0.95;;